Time;durP1;ratioP1;P1;durP2;ratioP2;P2;SDS_P1;SDS_P2;PMS_P1;PMS_P2;Temp;Humidity;BMP_temperature;BMP_pressure;BME280_temperature;BME280_humidity;BME280_pressure;Samples;Min_cycle;Max_cycle;Signal;HPM_P1;HPM_P2
2024/03/17 00:01:37;;;;;;;3.33;1.50;;;11.70;72.40;;;;;;2312741;53;21037;-64
2024/03/17 00:04:03;;;;;;;3.17;1.48;;;11.70;72.50;;;;;;2313101;53;20957;-64
2024/03/17 00:06:30;;;;;;;4.10;2.08;;;11.70;72.50;;;;;;2313294;55;21753;-64
2024/03/17 00:08:56;;;;;;;2.47;1.20;;;11.60;72.40;;;;;;2312660;53;21037;-65
2024/03/17 00:11:23;;;;;;;3.30;1.40;;;11.60;72.50;;;;;;2312915;53;21409;-65
2024/03/17 00:13:49;;;;;;;3.20;1.40;;;11.60;72.50;;;;;;2314888;54;21261;-65
2024/03/17 00:16:18;;;;;;;2.60;1.20;;;11.60;72.60;;;;;;2309941;55;21013;-64
2024/03/17 00:18:46;;;;;;;5.15;1.17;;;11.60;72.80;;;;;;2312953;53;21008;-64
2024/03/17 00:21:13;;;;;;;2.25;1.05;;;11.60;73.00;;;;;;2306142;55;20993;-64
2024/03/17 00:23:39;;;;;;;3.67;1.15;;;11.50;73.10;;;;;;2313926;54;21843;-65
2024/03/17 00:26:07;;;;;;;2.30;1.10;;;11.60;73.40;;;;;;2313740;53;21254;-65
2024/03/17 00:28:33;;;;;;;4.50;2.20;;;11.60;73.60;;;;;;2313688;53;20998;-65
2024/03/17 00:31:03;;;;;;;4.32;2.20;;;11.70;73.90;;;;;;2313560;55;21443;-65
2024/03/17 00:33:30;;;;;;;5.30;2.47;;;11.70;74.00;;;;;;2313317;53;21016;-63
2024/03/17 00:35:56;;;;;;;3.90;2.08;;;11.70;74.10;;;;;;2313797;53;21261;-65
2024/03/17 00:38:22;;;;;;;3.70;1.83;;;11.80;74.30;;;;;;2313454;55;21280;-64
2024/03/17 00:40:50;;;;;;;4.10;2.00;;;11.80;74.60;;;;;;2313815;55;21401;-65
2024/03/17 00:43:17;;;;;;;3.60;1.80;;;11.80;74.40;;;;;;2313575;53;21131;-66
2024/03/17 00:45:43;;;;;;;2.92;1.48;;;11.80;74.40;;;;;;2306505;55;21041;-64
2024/03/17 00:48:10;;;;;;;2.53;1.20;;;11.90;74.50;;;;;;2315546;53;20965;-65
2024/03/17 00:50:39;;;;;;;4.82;2.15;;;11.90;74.50;;;;;;2309433;55;20985;-65
2024/03/17 00:53:06;;;;;;;3.70;1.77;;;12.00;74.70;;;;;;2313793;55;21276;-64
2024/03/17 00:55:32;;;;;;;3.90;1.40;;;12.00;74.70;;;;;;2312263;53;20977;-65
2024/03/17 00:57:59;;;;;;;2.47;1.12;;;12.00;74.60;;;;;;2313532;53;20957;-65
2024/03/17 01:00:28;;;;;;;2.40;0.95;;;11.90;74.50;;;;;;2314099;53;21479;-64
2024/03/17 01:02:55;;;;;;;2.25;1.10;;;12.10;74.70;;;;;;2312362;55;20965;-65
2024/03/17 01:05:22;;;;;;;3.85;1.10;;;12.10;74.70;;;;;;2311368;55;20949;-64
2024/03/17 01:07:50;;;;;;;3.17;1.20;;;12.20;74.70;;;;;;2313708;53;20964;-65
2024/03/17 01:10:16;;;;;;;2.30;1.10;;;12.20;74.50;;;;;;2313492;54;22069;-65
2024/03/17 01:12:42;;;;;;;2.08;1.00;;;12.20;74.50;;;;;;2313537;53;21590;-63
2024/03/17 01:15:10;;;;;;;2.20;1.20;;;12.20;74.30;;;;;;2313392;53;21448;-65
2024/03/17 01:17:36;;;;;;;2.20;1.10;;;12.20;74.20;;;;;;2312703;53;21013;-65
2024/03/17 01:20:03;;;;;;;2.75;1.30;;;12.20;74.10;;;;;;2313954;54;20960;-64
2024/03/17 01:22:37;;;;;;;2.25;1.02;;;12.20;74.10;;;;;;2312805;55;21320;-65
2024/03/17 01:25:04;;;;;;;2.53;1.10;;;12.30;73.90;;;;;;2312113;54;21503;-65
2024/03/17 01:27:30;;;;;;;2.33;1.05;;;12.30;74.20;;;;;;2313258;55;21438;-65
2024/03/17 01:29:56;;;;;;;2.00;0.90;;;12.30;74.20;;;;;;2311061;53;20917;-64
2024/03/17 01:32:23;;;;;;;2.62;1.40;;;12.30;74.20;;;;;;2313488;55;20964;-65
2024/03/17 01:34:49;;;;;;;2.55;1.20;;;12.30;74.20;;;;;;2313190;55;21538;-65
2024/03/17 01:37:18;;;;;;;2.55;1.23;;;12.30;74.20;;;;;;2312861;53;21004;-64
2024/03/17 01:39:46;;;;;;;3.70;1.52;;;12.30;74.20;;;;;;2312797;53;21016;-64
2024/03/17 01:42:13;;;;;;;3.72;1.80;;;12.40;74.30;;;;;;2313921;53;20957;-64
2024/03/17 01:44:40;;;;;;;3.65;1.83;;;12.30;74.20;;;;;;2313385;55;20993;-65
2024/03/17 01:47:06;;;;;;;4.22;1.80;;;12.40;74.30;;;;;;2311898;54;21454;-65
2024/03/17 01:49:32;;;;;;;3.55;1.77;;;12.40;74.30;;;;;;2312798;53;21461;-64
2024/03/17 01:52:03;;;;;;;4.87;2.00;;;12.40;74.30;;;;;;2317846;55;21001;-64
2024/03/17 01:54:34;;;;;;;3.10;1.70;;;12.40;74.30;;;;;;2288243;55;20917;-65
2024/03/17 01:57:05;;;;;;;4.20;2.15;;;12.50;74.30;;;;;;2315129;55;21462;-65
2024/03/17 01:59:32;;;;;;;4.03;2.00;;;12.40;74.30;;;;;;2313057;53;21344;-65
2024/03/17 02:01:58;;;;;;;4.03;1.80;;;12.50;74.40;;;;;;2311996;53;20941;-64
2024/03/17 02:04:25;;;;;;;3.40;2.00;;;12.50;74.40;;;;;;2313148;53;21036;-65
2024/03/17 02:06:51;;;;;;;4.12;2.10;;;12.50;74.30;;;;;;2313409;53;20977;-66
2024/03/17 02:09:18;;;;;;;4.15;2.30;;;12.50;74.30;;;;;;2312994;54;20960;-66
2024/03/17 02:11:44;;;;;;;2.60;1.55;;;12.50;74.30;;;;;;2313226;55;20981;-65
2024/03/17 02:14:13;;;;;;;2.90;1.50;;;12.50;74.30;;;;;;2312710;53;21032;-66
2024/03/17 02:16:40;;;;;;;4.47;2.10;;;12.60;74.50;;;;;;2312754;55;20996;-66
2024/03/17 02:19:06;;;;;;;3.95;1.95;;;12.60;74.40;;;;;;2311589;55;20972;-65
2024/03/17 02:21:37;;;;;;;3.47;2.10;;;12.60;74.40;;;;;;2313458;53;20997;-66
2024/03/17 02:24:03;;;;;;;3.20;1.90;;;12.60;74.30;;;;;;2316133;55;20929;-65
2024/03/17 02:26:30;;;;;;;5.12;2.47;;;12.60;74.40;;;;;;2294832;55;20972;-66
2024/03/17 02:28:56;;;;;;;4.20;2.08;;;12.60;74.40;;;;;;2307399;53;21008;-65
2024/03/17 02:31:22;;;;;;;4.93;2.47;;;12.70;74.50;;;;;;2313542;53;20965;-65
2024/03/17 02:33:49;;;;;;;4.65;2.70;;;12.70;74.50;;;;;;2313006;53;21269;-65
2024/03/17 02:36:17;;;;;;;5.95;3.17;;;12.70;74.50;;;;;;2313333;55;21020;-65
2024/03/17 02:41:28;;;;;;;6.12;3.60;;;12.70;74.50;;;;;;2290011;55;20985;-65
2024/03/17 02:43:55;;;;;;;5.12;3.03;;;12.70;74.40;;;;;;2313287;53;21589;-66
2024/03/17 02:46:23;;;;;;;4.47;2.42;;;12.80;74.40;;;;;;2313387;53;21509;-65
2024/03/17 02:48:55;;;;;;;4.03;2.12;;;12.70;74.20;;;;;;2313863;55;20957;-65
2024/03/17 02:51:21;;;;;;;4.43;2.20;;;12.70;74.10;;;;;;2313283;53;21748;-64
2024/03/17 02:53:48;;;;;;;4.47;2.62;;;12.70;74.00;;;;;;2311945;53;21478;-65
2024/03/17 02:56:17;;;;;;;3.85;2.10;;;12.70;74.00;;;;;;2313760;55;20981;-65
2024/03/17 02:58:47;;;;;;;;;;;12.70;74.10;;;;;;2305074;55;21003;-64
2024/03/17 03:01:14;;;;;;;5.53;2.28;;;12.80;73.00;;;;;;2304311;55;20095;-65
2024/03/17 03:03:41;;;;;;;3.00;1.60;;;12.80;74.20;;;;;;2313321;53;20969;-65
2024/03/17 03:06:11;;;;;;;3.42;2.00;;;12.80;74.30;;;;;;2313341;53;21060;-63
2024/03/17 03:08:40;;;;;;;3.10;1.50;;;12.80;74.30;;;;;;2313148;55;20949;-64
2024/03/17 03:11:10;;;;;;;4.45;2.15;;;12.80;74.20;;;;;;2314357;53;20957;-64
2024/03/17 03:13:42;;;;;;;3.15;1.80;;;12.80;74.20;;;;;;2312503;55;21036;-66
2024/03/17 03:16:10;;;;;;;4.43;2.10;;;12.80;74.00;;;;;;2313745;55;20956;-65
2024/03/17 03:18:37;;;;;;;4.30;2.37;;;12.80;74.20;;;;;;2312776;53;21100;-64
2024/03/17 03:21:03;;;;;;;4.40;2.17;;;12.80;74.20;;;;;;2314108;55;20965;-66
2024/03/17 03:23:31;;;;;;;3.95;2.22;;;12.80;74.10;;;;;;2313059;53;20985;-65
2024/03/17 03:25:58;;;;;;;3.83;1.90;;;12.80;74.10;;;;;;2290977;54;21326;-64
2024/03/17 03:28:24;;;;;;;3.83;2.03;;;12.80;74.10;;;;;;2313388;54;20941;-64
2024/03/17 03:30:54;;;;;;;3.70;2.12;;;12.80;74.00;;;;;;2314127;55;20966;-64
2024/03/17 03:33:20;;;;;;;4.07;2.05;;;12.80;74.00;;;;;;2311952;55;21410;-64
2024/03/17 03:35:46;;;;;;;3.22;1.98;;;12.80;73.90;;;;;;2313454;53;21876;-65
2024/03/17 03:38:16;;;;;;;4.57;2.42;;;12.80;73.80;;;;;;2314180;55;21533;-64
2024/03/17 03:40:44;;;;;;;4.20;2.58;;;12.80;73.70;;;;;;2314546;53;20993;-66
2024/03/17 03:43:13;;;;;;;5.68;3.00;;;12.80;73.60;;;;;;2297891;56;20943;-65
2024/03/17 03:45:40;;;;;;;4.45;1.98;;;12.80;73.40;;;;;;2308098;53;21364;-64
2024/03/17 03:48:09;;;;;;;4.18;2.20;;;12.70;73.40;;;;;;2314804;53;21021;-64
2024/03/17 03:50:35;;;;;;;3.85;1.77;;;12.80;73.40;;;;;;2310231;55;20953;-66
2024/03/17 03:53:05;;;;;;;4.95;1.95;;;12.70;73.40;;;;;;2313772;53;21037;-64
2024/03/17 03:55:32;;;;;;;3.72;2.20;;;12.70;73.40;;;;;;2313264;55;21091;-66
2024/03/17 03:58:03;;;;;;;4.05;1.90;;;12.70;73.30;;;;;;2313860;53;20968;-64
2024/03/17 04:00:31;;;;;;;2.90;1.55;;;12.70;73.20;;;;;;2311600;55;20949;-65
2024/03/17 04:02:58;;;;;;;3.90;2.00;;;12.70;73.30;;;;;;2312849;55;21084;-65
2024/03/17 04:05:25;;;;;;;3.87;1.85;;;12.70;73.30;;;;;;2312887;53;21210;-65
2024/03/17 04:07:51;;;;;;;4.25;2.12;;;12.60;73.20;;;;;;2313403;53;21478;-65
2024/03/17 04:10:20;;;;;;;3.58;1.80;;;12.60;73.20;;;;;;2313527;53;20953;-66
2024/03/17 04:12:47;;;;;;;4.60;2.40;;;12.50;73.00;;;;;;2313231;53;21008;-65
2024/03/17 04:15:14;;;;;;;3.90;2.20;;;12.50;73.00;;;;;;2313777;53;21008;-65
2024/03/17 04:17:44;;;;;;;4.65;2.47;;;12.50;73.10;;;;;;2312947;55;20943;-65
2024/03/17 04:20:13;;;;;;;3.78;2.28;;;12.50;73.10;;;;;;2313430;53;20941;-65
2024/03/17 04:22:45;;;;;;;4.82;2.20;;;12.50;73.10;;;;;;2312944;55;21826;-66
2024/03/17 04:25:12;;;;;;;;;;;12.40;73.00;;;;;;2317389;53;21845;-64
2024/03/17 04:27:39;;;;;;;3.05;1.67;;;12.50;72.00;;;;;;2313165;53;20071;-65
2024/03/17 04:30:06;;;;;;;3.40;1.90;;;12.40;72.90;;;;;;2313198;55;20949;-65
2024/03/17 04:32:32;;;;;;;4.60;2.30;;;12.40;73.10;;;;;;2313084;54;21003;-64
2024/03/17 04:35:02;;;;;;;6.30;2.45;;;12.40;73.20;;;;;;2314244;54;20953;-65
2024/03/17 04:37:28;;;;;;;3.92;2.40;;;12.40;73.20;;;;;;2313260;54;21339;-64
2024/03/17 04:39:57;;;;;;;3.62;2.12;;;12.30;73.30;;;;;;2313329;53;20917;-65
2024/03/17 04:42:23;;;;;;;4.65;2.33;;;12.30;73.30;;;;;;2313113;55;21012;-65
2024/03/17 04:44:51;;;;;;;3.37;1.95;;;12.30;73.30;;;;;;2312431;55;21756;-65
2024/03/17 04:47:17;;;;;;;3.20;1.85;;;12.30;73.30;;;;;;2313706;55;21079;-64
2024/03/17 04:49:43;;;;;;;4.43;2.30;;;12.20;73.20;;;;;;2313111;55;21024;-65
2024/03/17 04:52:11;;;;;;;4.12;2.50;;;12.30;73.20;;;;;;2313220;54;21017;-65
2024/03/17 04:54:37;;;;;;;3.62;2.08;;;12.20;73.10;;;;;;2312509;55;21021;-65
2024/03/17 04:57:04;;;;;;;3.60;2.05;;;12.20;73.10;;;;;;2313756;53;20945;-65
2024/03/17 04:59:33;;;;;;;4.37;2.28;;;12.20;73.10;;;;;;2313014;55;20965;-64
2024/03/17 05:01:59;;;;;;;6.65;2.75;;;12.20;73.10;;;;;;2313484;55;20982;-65
2024/03/17 05:04:26;;;;;;;4.37;2.50;;;12.20;73.00;;;;;;2313729;55;20997;-65
2024/03/17 05:06:52;;;;;;;3.90;2.30;;;12.20;73.00;;;;;;2313391;55;21074;-64
2024/03/17 05:09:18;;;;;;;3.28;1.85;;;12.10;72.90;;;;;;2313577;55;21852;-65
2024/03/17 05:11:44;;;;;;;4.03;1.98;;;12.10;72.80;;;;;;2313859;53;21470;-65
2024/03/17 05:14:11;;;;;;;3.55;1.90;;;12.10;72.80;;;;;;2313697;55;21301;-65
2024/03/17 05:16:38;;;;;;;3.80;2.25;;;12.10;72.70;;;;;;2316807;55;21317;-64
2024/03/17 05:19:06;;;;;;;3.42;1.95;;;12.00;72.60;;;;;;2314021;55;20933;-65
2024/03/17 05:21:33;;;;;;;3.33;1.77;;;12.00;72.60;;;;;;2313132;55;20961;-66
2024/03/17 05:24:01;;;;;;;4.85;1.90;;;12.00;72.50;;;;;;2313252;53;21439;-65
2024/03/17 05:26:27;;;;;;;3.85;2.03;;;12.00;72.40;;;;;;2313269;55;21262;-64
2024/03/17 05:28:55;;;;;;;3.30;1.65;;;11.90;72.20;;;;;;2313632;53;22026;-65
2024/03/17 05:31:22;;;;;;;5.37;2.17;;;11.90;72.20;;;;;;2314289;53;20959;-64
2024/03/17 05:33:48;;;;;;;3.47;1.80;;;11.80;72.10;;;;;;2313685;55;21057;-65
2024/03/17 05:36:15;;;;;;;3.67;1.83;;;11.80;72.10;;;;;;2314809;53;21478;-65
2024/03/17 05:38:41;;;;;;;4.07;2.20;;;11.80;72.10;;;;;;2315327;54;21058;-65
2024/03/17 05:41:08;;;;;;;4.37;2.00;;;11.70;72.00;;;;;;2294839;54;21466;-65
2024/03/17 05:43:38;;;;;;;3.95;2.12;;;11.70;72.00;;;;;;2313609;55;20961;-66
2024/03/17 05:46:06;;;;;;;4.90;1.83;;;11.70;71.90;;;;;;2291777;55;21023;-65
2024/03/17 05:48:38;;;;;;;5.05;2.85;;;11.60;71.80;;;;;;2313945;53;20980;-64
2024/03/17 05:51:08;;;;;;;3.35;2.17;;;11.60;71.80;;;;;;2313810;53;21040;-65
2024/03/17 05:53:35;;;;;;;3.87;2.10;;;11.50;71.80;;;;;;2290297;54;21101;-65
2024/03/17 05:56:02;;;;;;;4.28;2.40;;;11.50;71.90;;;;;;2313925;55;20953;-64
2024/03/17 05:58:28;;;;;;;4.07;2.50;;;11.50;72.00;;;;;;2313442;53;20968;-65
2024/03/17 06:00:55;;;;;;;5.37;2.92;;;11.40;72.00;;;;;;2313530;53;21013;-64
2024/03/17 06:03:24;;;;;;;4.47;2.58;;;11.40;72.10;;;;;;2313849;54;20941;-63
2024/03/17 06:05:51;;;;;;;5.55;2.35;;;11.40;72.10;;;;;;2313297;53;21064;-64
2024/03/17 06:08:17;;;;;;;4.05;2.67;;;11.30;72.10;;;;;;2313504;55;20953;-64
2024/03/17 06:10:48;;;;;;;4.28;2.50;;;11.30;72.20;;;;;;2312772;53;20977;-65
2024/03/17 06:13:19;;;;;;;4.30;2.58;;;11.30;72.10;;;;;;2313304;55;20973;-66
2024/03/17 06:15:47;;;;;;;4.40;2.87;;;11.20;72.20;;;;;;2312502;55;21020;-64
2024/03/17 06:18:14;;;;;;;4.85;2.45;;;11.20;72.30;;;;;;2312364;55;21541;-66
2024/03/17 06:20:49;;;;;;;4.55;2.12;;;11.20;72.40;;;;;;2311936;53;20969;-65
2024/03/17 06:23:15;;;;;;;3.75;2.17;;;11.20;72.20;;;;;;2313643;53;21317;-65
2024/03/17 06:25:44;;;;;;;4.22;2.30;;;11.20;72.60;;;;;;2313557;53;21828;-64
2024/03/17 06:28:13;;;;;;;3.30;1.92;;;11.20;72.60;;;;;;2311111;53;20957;-63
2024/03/17 06:30:49;;;;;;;3.60;2.15;;;11.20;72.60;;;;;;2312984;53;21253;-63
2024/03/17 06:33:18;;;;;;;4.50;2.33;;;11.10;72.60;;;;;;2313613;54;21057;-65
2024/03/17 06:35:46;;;;;;;3.85;2.10;;;11.10;72.70;;;;;;2313568;54;21028;-64
2024/03/17 06:38:15;;;;;;;4.35;1.87;;;11.10;73.50;;;;;;2313773;53;20953;-66
2024/03/17 06:40:42;;;;;;;4.07;1.90;;;11.10;72.90;;;;;;2313048;53;21034;-65
2024/03/17 06:43:08;;;;;;;3.95;2.20;;;11.10;72.90;;;;;;2313771;55;21467;-65
2024/03/17 06:45:34;;;;;;;4.10;2.70;;;11.10;72.90;;;;;;2313513;55;21028;-66
2024/03/17 06:48:00;;;;;;;4.70;2.70;;;11.10;73.00;;;;;;2313477;55;20976;-64
2024/03/17 06:50:27;;;;;;;4.50;2.92;;;11.10;73.10;;;;;;2313079;55;20996;-66
2024/03/17 06:52:53;;;;;;;4.93;3.40;;;11.10;73.30;;;;;;2313564;53;20964;-65
2024/03/17 06:55:21;;;;;;;4.62;2.92;;;11.10;73.30;;;;;;2313268;55;20941;-64
2024/03/17 06:57:47;;;;;;;6.03;3.70;;;11.10;73.50;;;;;;2313173;53;21462;-64
2024/03/17 07:00:14;;;;;;;4.28;2.67;;;11.10;73.60;;;;;;2314786;53;21679;-64
2024/03/17 07:02:43;;;;;;;5.37;3.15;;;11.20;73.70;;;;;;2312011;55;20985;-65
2024/03/17 07:05:15;;;;;;;4.57;2.72;;;11.20;73.70;;;;;;2290708;55;20965;-65
2024/03/17 07:07:42;;;;;;;5.62;2.78;;;11.20;73.70;;;;;;2313202;53;21339;-64
2024/03/17 07:10:09;;;;;;;4.50;2.55;;;11.20;73.90;;;;;;2313643;53;21012;-64
2024/03/17 07:12:35;;;;;;;3.92;2.33;;;11.20;74.00;;;;;;2312938;55;21087;-65
2024/03/17 07:15:03;;;;;;;3.58;2.20;;;11.20;74.00;;;;;;2313689;53;20978;-65
2024/03/17 07:17:29;;;;;;;4.12;2.60;;;11.30;74.30;;;;;;2313307;53;21009;-66
2024/03/17 07:19:55;;;;;;;4.05;2.17;;;11.30;74.40;;;;;;2313595;55;21017;-66
2024/03/17 07:22:26;;;;;;;4.60;3.28;;;11.30;74.50;;;;;;2314206;53;20961;-65
2024/03/17 07:24:56;;;;;;;4.80;3.25;;;11.40;74.70;;;;;;2313689;53;20956;-64
2024/03/17 07:27:22;;;;;;;5.85;3.37;;;11.40;74.70;;;;;;2313468;53;20948;-65
2024/03/17 07:29:49;;;;;;;4.90;3.12;;;11.40;74.80;;;;;;2312081;55;21349;-65
2024/03/17 07:32:15;;;;;;;6.30;3.55;;;11.50;75.00;;;;;;2313686;55;20953;-66
2024/03/17 07:34:41;;;;;;;5.37;3.28;;;11.50;75.00;;;;;;2313138;53;21347;-65
2024/03/17 07:37:08;;;;;;;4.90;2.90;;;11.50;75.10;;;;;;2313548;55;20973;-65
2024/03/17 07:39:34;;;;;;;5.20;3.17;;;11.60;75.20;;;;;;2313809;55;21782;-64
2024/03/17 07:42:06;;;;;;;5.62;3.72;;;11.60;75.30;;;;;;2313530;53;20981;-64
2024/03/17 07:44:35;;;;;;;4.97;3.45;;;11.70;75.40;;;;;;2313597;55;21233;-64
2024/03/17 07:47:03;;;;;;;4.30;2.78;;;11.80;75.60;;;;;;2313840;55;21780;-64
2024/03/17 07:49:30;;;;;;;6.30;3.00;;;11.80;75.80;;;;;;2313465;55;20940;-64
2024/03/17 07:51:57;;;;;;;4.07;2.80;;;11.90;75.90;;;;;;2313262;54;20953;-65
2024/03/17 07:54:27;;;;;;;4.50;2.78;;;12.00;76.10;;;;;;2312766;53;21077;-65
2024/03/17 07:56:53;;;;;;;5.40;3.30;;;12.00;76.00;;;;;;2313333;53;20973;-64
2024/03/17 07:59:20;;;;;;;5.20;3.25;;;12.10;76.20;;;;;;2313961;53;21269;-65
2024/03/17 08:01:46;;;;;;;5.45;3.33;;;12.20;76.20;;;;;;2312724;53;20957;-65
2024/03/17 08:04:13;;;;;;;7.40;3.28;;;12.20;76.20;;;;;;2312472;53;20953;-66
2024/03/17 08:06:40;;;;;;;6.75;4.40;;;12.30;76.30;;;;;;2312529;53;20981;-65
2024/03/17 08:09:10;;;;;;;6.30;4.37;;;12.30;76.10;;;;;;2312697;55;21343;-65
2024/03/17 08:11:36;;;;;;;5.82;3.83;;;12.40;76.10;;;;;;2313095;54;20937;-64
2024/03/17 08:14:05;;;;;;;6.12;3.78;;;12.50;76.20;;;;;;2313846;55;21025;-65
2024/03/17 08:16:32;;;;;;;6.70;4.07;;;12.50;76.10;;;;;;2313031;53;20988;-65
2024/03/17 08:18:58;;;;;;;5.72;3.70;;;12.60;76.20;;;;;;2313008;54;20961;-66
2024/03/17 08:21:25;;;;;;;7.00;5.10;;;12.60;76.10;;;;;;2313522;55;21493;-65
2024/03/17 08:23:52;;;;;;;6.45;4.35;;;12.70;76.30;;;;;;2312541;54;21565;-66
2024/03/17 08:26:21;;;;;;;6.32;4.20;;;12.70;76.40;;;;;;2313374;55;21056;-65
2024/03/17 08:28:49;;;;;;;7.50;3.85;;;12.80;76.60;;;;;;2311782;55;21001;-65
2024/03/17 08:31:19;;;;;;;6.32;4.47;;;12.90;77.00;;;;;;2313704;54;21510;-65
2024/03/17 08:33:46;;;;;;;8.13;4.18;;;13.00;76.70;;;;;;2312738;53;20957;-65
2024/03/17 08:36:13;;;;;;;7.78;4.57;;;13.00;76.70;;;;;;2313315;55;21348;-65
2024/03/17 08:38:39;;;;;;;8.70;5.47;;;13.10;76.80;;;;;;2313166;53;21045;-66
2024/03/17 08:41:07;;;;;;;7.62;5.22;;;13.10;76.60;;;;;;2312247;55;21020;-65
2024/03/17 08:43:33;;;;;;;7.03;4.90;;;13.20;76.60;;;;;;2312979;55;20945;-66
2024/03/17 08:46:18;;;;;;;8.23;5.35;;;13.30;76.60;;;;;;2313796;54;21017;-66
2024/03/17 08:48:47;;;;;;;8.38;5.78;;;13.30;76.10;;;;;;2313402;53;21037;-66
2024/03/17 08:51:13;;;;;;;7.78;5.45;;;13.40;76.80;;;;;;2313093;53;20926;-66
2024/03/17 08:53:40;;;;;;;8.30;5.93;;;13.40;76.90;;;;;;2284886;53;1687053;-66
2024/03/17 08:56:06;;;;;;;7.60;5.10;;;13.50;77.10;;;;;;2313347;53;20957;-65
2024/03/17 08:58:34;;;;;;;7.93;5.03;;;13.60;77.10;;;;;;2313095;53;20989;-66
2024/03/17 09:01:05;;;;;;;8.07;5.28;;;13.60;77.00;;;;;;2313095;54;21847;-65
2024/03/17 09:03:31;;;;;;;6.30;4.25;;;13.70;77.00;;;;;;2312643;53;21616;-66
2024/03/17 09:05:58;;;;;;;6.55;4.70;;;13.70;77.00;;;;;;2313878;54;20981;-66
2024/03/17 09:08:27;;;;;;;7.47;4.35;;;13.90;77.10;;;;;;2314675;54;21046;-66
2024/03/17 09:10:54;;;;;;;6.65;4.30;;;13.90;77.00;;;;;;2313395;53;21001;-65
2024/03/17 09:13:23;;;;;;;6.45;4.68;;;13.90;77.00;;;;;;2312827;53;21340;-65
2024/03/17 09:16:00;;;;;;;6.03;4.65;;;14.00;77.00;;;;;;2315819;54;20977;-67
2024/03/17 09:18:27;;;;;;;8.65;5.60;;;14.10;76.70;;;;;;2312598;53;21084;-66
2024/03/17 09:21:00;;;;;;;7.72;5.30;;;14.10;76.90;;;;;;2312686;55;21390;-66
2024/03/17 09:23:27;;;;;;;7.15;4.70;;;14.20;76.70;;;;;;2312049;53;20972;-65
2024/03/17 09:26:04;;;;;;;6.87;4.55;;;14.30;77.20;;;;;;2313252;55;21001;-65
2024/03/17 09:28:33;;;;;;;6.47;4.43;;;14.30;77.30;;;;;;2312794;53;21213;-66
2024/03/17 09:30:59;;;;;;;6.62;4.78;;;14.40;77.50;;;;;;2314347;54;20968;-66
2024/03/17 09:33:27;;;;;;;7.55;4.62;;;14.60;77.70;;;;;;2313422;55;21225;-66
2024/03/17 09:35:58;;;;;;;6.68;4.50;;;14.60;77.60;;;;;;2313215;53;21510;-65
2024/03/17 09:38:24;;;;;;;7.18;5.22;;;14.60;77.50;;;;;;2313324;53;20949;-66
2024/03/17 09:40:52;;;;;;;6.12;4.05;;;14.70;77.50;;;;;;2312747;53;21032;-66
2024/03/17 09:43:20;;;;;;;6.50;4.62;;;14.80;77.60;;;;;;2313253;55;21545;-66
2024/03/17 09:45:47;;;;;;;6.32;4.72;;;14.80;77.60;;;;;;2313079;53;20961;-66
2024/03/17 09:48:17;;;;;;;7.50;5.03;;;14.90;77.70;;;;;;2312103;53;21525;-65
2024/03/17 09:50:53;;;;;;;6.53;4.22;;;15.00;77.30;;;;;;2312116;55;20973;-65
2024/03/17 09:53:29;;;;;;;6.22;3.90;;;15.10;76.80;;;;;;2313090;53;21025;-66
2024/03/17 09:56:20;;;;;;;4.97;3.72;;;15.10;76.90;;;;;;2312725;53;20969;-64
2024/03/17 09:58:47;;;;;;;5.55;3.97;;;15.20;76.40;;;;;;2313449;54;20956;-65
2024/03/17 10:01:14;;;;;;;6.75;5.05;;;15.30;77.40;;;;;;2313362;55;20969;-66
2024/03/17 10:03:52;;;;;;;6.82;4.95;;;15.30;77.40;;;;;;2313836;53;20980;-66
2024/03/17 10:06:22;;;;;;;6.37;4.70;;;15.40;77.00;;;;;;2313115;55;21272;-65
2024/03/17 10:08:50;;;;;;;7.22;5.35;;;15.50;77.10;;;;;;2313549;55;21025;-66
2024/03/17 10:11:19;;;;;;;7.60;5.15;;;15.50;77.10;;;;;;2313260;53;21099;-65
2024/03/17 10:13:46;;;;;;;6.28;4.00;;;15.60;76.90;;;;;;2312641;55;20949;-65
2024/03/17 10:16:23;;;;;;;5.82;4.05;;;15.70;77.10;;;;;;2313153;53;21674;-66
2024/03/17 10:22:23;;;;;;;5.43;3.67;;;15.70;76.60;;;;;;2313138;55;20941;-66
2024/03/17 10:24:59;;;;;;;5.10;3.67;;;15.80;77.20;;;;;;2316158;54;21890;-65
2024/03/17 10:27:25;;;;;;;6.40;4.45;;;16.00;76.60;;;;;;2312912;55;21025;-64
2024/03/17 10:29:52;;;;;;;8.05;4.40;;;16.00;77.00;;;;;;2312606;55;20941;-66
2024/03/17 10:32:22;;;;;;;5.85;4.10;;;16.00;76.80;;;;;;2313454;55;21174;-65
2024/03/17 10:34:48;;;;;;;5.70;3.58;;;16.10;76.90;;;;;;2290051;55;21005;-66
2024/03/17 10:37:27;;;;;;;5.15;3.67;;;16.10;76.80;;;;;;2313294;53;21009;-66
2024/03/17 10:39:55;;;;;;;5.12;3.05;;;16.20;76.90;;;;;;2312975;53;21041;-64
2024/03/17 10:42:35;;;;;;;5.28;3.30;;;16.30;76.80;;;;;;2313473;55;21425;-64
2024/03/17 10:45:12;;;;;;;5.18;3.47;;;16.30;76.50;;;;;;2314179;54;21052;-66
2024/03/17 10:47:38;;;;;;;5.15;3.50;;;16.40;76.60;;;;;;2313770;53;21116;-66
2024/03/17 10:50:07;;;;;;;5.20;3.53;;;16.40;76.20;;;;;;2310262;55;21428;-66
2024/03/17 10:52:34;;;;;;;5.82;3.50;;;16.40;76.10;;;;;;2313264;53;20989;-66
2024/03/17 10:55:07;;;;;;;5.97;3.70;;;16.50;76.20;;;;;;2313885;55;20945;-65
2024/03/17 10:59:04;;;;;;;4.68;3.03;;;16.50;75.90;;;;;;2313361;53;20941;-66
2024/03/17 11:01:32;;;;;;;4.65;2.75;;;16.50;74.70;;;;;;2312818;53;21100;-65
2024/03/17 11:03:59;;;;;;;4.55;2.92;;;16.60;76.10;;;;;;2312808;55;20973;-66
2024/03/17 11:06:26;;;;;;;4.72;2.75;;;16.60;76.00;;;;;;2313338;53;21013;-65
2024/03/17 11:08:52;;;;;;;4.70;2.78;;;16.60;76.30;;;;;;2313513;53;20989;-66
2024/03/17 11:11:35;;;;;;;6.43;3.45;;;16.70;76.40;;;;;;2313200;55;21847;-66
2024/03/17 11:14:20;;;;;;;5.37;3.28;;;16.70;75.50;;;;;;2313521;55;20945;-66
2024/03/17 11:16:48;;;;;;;4.62;2.85;;;16.80;75.40;;;;;;2312390;53;20987;-66
2024/03/17 11:19:16;;;;;;;5.75;3.53;;;16.80;76.10;;;;;;2313512;53;21033;-66
2024/03/17 11:21:43;;;;;;;6.05;3.55;;;16.80;76.20;;;;;;2313137;54;21009;-66
2024/03/17 11:24:21;;;;;;;6.95;4.30;;;16.90;76.30;;;;;;2313513;53;21829;-66
2024/03/17 11:26:49;;;;;;;4.78;2.90;;;16.90;75.60;;;;;;2312924;53;20969;-66
2024/03/17 11:29:28;;;;;;;5.25;3.15;;;17.00;76.70;;;;;;2313662;55;21012;-66
2024/03/17 11:31:55;;;;;;;4.87;2.83;;;16.90;75.70;;;;;;2313544;53;21005;-66
2024/03/17 11:34:40;;;;;;;4.53;3.08;;;17.10;76.70;;;;;;2313555;54;20973;-68
2024/03/17 11:37:08;;;;;;;6.15;3.05;;;17.20;76.00;;;;;;2312108;53;21442;-67
2024/03/17 11:39:53;;;;;;;5.43;3.25;;;17.20;76.70;;;;;;2312469;53;21458;-68
2024/03/17 11:42:22;;;;;;;4.50;2.47;;;17.30;76.20;;;;;;2313192;54;20969;-68
2024/03/17 11:45:03;;;;;;;5.78;2.70;;;17.40;76.70;;;;;;2312625;55;20964;-68
2024/03/17 11:47:42;;;;;;;4.22;2.33;;;17.40;76.10;;;;;;2313298;55;21288;-68
2024/03/17 11:50:10;;;;;;;4.50;2.80;;;17.50;76.40;;;;;;2313134;54;21028;-67
2024/03/17 11:52:40;;;;;;;4.15;2.70;;;17.60;77.10;;;;;;2313006;55;21280;-67
2024/03/17 11:55:17;;;;;;;3.62;2.30;;;17.60;76.80;;;;;;2313042;55;20980;-66
2024/03/17 11:57:45;;;;;;;5.97;3.00;;;17.70;76.40;;;;;;2313111;53;20929;-66
2024/03/17 12:00:20;;;;;;;4.20;3.08;;;17.70;76.80;;;;;;2313509;55;20968;-66
2024/03/17 12:02:48;;;;;;;6.40;2.83;;;17.80;76.20;;;;;;2313432;55;20956;-71
2024/03/17 12:05:20;;;;;;;5.05;2.92;;;17.90;76.60;;;;;;2313467;54;21470;-67
2024/03/17 12:07:47;;;;;;;4.95;2.83;;;17.90;76.60;;;;;;2312861;55;21057;-68
2024/03/17 12:10:16;;;;;;;5.03;3.00;;;17.90;76.50;;;;;;2313464;53;21450;-67
2024/03/17 12:12:47;;;;;;;7.20;3.37;;;18.00;76.40;;;;;;2309123;55;21447;-68
2024/03/17 12:15:18;;;;;;;4.62;2.53;;;18.00;75.90;;;;;;2297082;54;21761;-67
2024/03/17 12:17:44;;;;;;;5.65;3.15;;;18.10;76.30;;;;;;2313080;53;21036;-68
2024/03/17 12:20:20;;;;;;;4.82;3.22;;;18.10;76.70;;;;;;2313897;53;21029;-67
2024/03/17 12:22:47;;;;;;;6.87;3.95;;;18.20;75.70;;;;;;2312859;54;20957;-64
2024/03/17 12:25:25;;;;;;;5.80;3.10;;;18.30;76.40;;;;;;2313549;55;21064;-67
2024/03/17 12:27:52;;;;;;;5.43;3.22;;;18.30;75.60;;;;;;2312827;55;20945;-66
2024/03/17 12:30:18;;;;;;;5.78;2.70;;;18.30;76.00;;;;;;2313485;53;21013;-66
2024/03/17 12:32:47;;;;;;;5.40;2.55;;;18.40;75.50;;;;;;2312780;55;21013;-67
2024/03/17 12:35:14;;;;;;;4.57;2.30;;;18.40;75.10;;;;;;2313666;53;20957;-66
2024/03/17 12:37:43;;;;;;;4.07;2.10;;;18.40;75.00;;;;;;2312706;55;20953;-67
2024/03/17 12:40:18;;;;;;;4.85;2.20;;;18.40;74.90;;;;;;2294389;55;21803;-67
2024/03/17 12:42:47;;;;;;;4.90;2.55;;;18.40;74.20;;;;;;2308873;55;21367;-69
2024/03/17 12:45:18;;;;;;;5.65;2.40;;;18.40;74.70;;;;;;2313635;53;21066;-66
2024/03/17 12:47:48;;;;;;;4.90;2.20;;;18.40;75.00;;;;;;2313257;53;21021;-66
2024/03/17 12:50:15;;;;;;;5.25;2.80;;;18.40;74.60;;;;;;2313308;55;21048;-68
2024/03/17 12:52:53;;;;;;;5.75;2.85;;;18.50;74.90;;;;;;2312714;55;20976;-66
2024/03/17 13:01:01;;;;;;;5.53;2.90;;;18.50;74.90;;;;;;2312834;55;21457;-68
2024/03/17 13:03:35;;;;;;;5.45;2.58;;;18.50;74.50;;;;;;2313538;53;21057;-67
2024/03/17 13:06:06;;;;;;;4.80;2.62;;;18.50;74.50;;;;;;2313053;53;21000;-66
2024/03/17 13:08:35;;;;;;;5.22;2.40;;;18.50;74.50;;;;;;2310903;55;21103;-68